sensor_id;sensor_type;location;lat;lon;timestamp;temperature;humidity
22633;DHT22;11483;55.828;37.488;2023-09-07T00:01:49;11.50;99.90
22633;DHT22;11483;55.828;37.488;2023-09-07T00:04:19;11.50;99.90
22633;DHT22;11483;55.828;37.488;2023-09-07T00:06:45;11.40;99.90
22633;DHT22;11483;55.828;37.488;2023-09-07T00:09:11;11.40;99.90
22633;DHT22;11483;55.828;37.488;2023-09-07T00:11:38;11.40;99.90
22633;DHT22;11483;55.828;37.488;2023-09-07T00:14:04;11.40;99.90
22633;DHT22;11483;55.828;37.488;2023-09-07T00:16:33;11.40;99.90
22633;DHT22;11483;55.828;37.488;2023-09-07T00:19:04;11.40;99.90
22633;DHT22;11483;55.828;37.488;2023-09-07T00:21:30;11.30;99.90
22633;DHT22;11483;55.828;37.488;2023-09-07T00:23:56;11.30;99.90
22633;DHT22;11483;55.828;37.488;2023-09-07T00:26:22;11.20;99.90
22633;DHT22;11483;55.828;37.488;2023-09-07T00:28:48;11.20;99.90
22633;DHT22;11483;55.828;37.488;2023-09-07T00:31:14;11.10;99.90
22633;DHT22;11483;55.828;37.488;2023-09-07T00:33:40;11.10;99.90
22633;DHT22;11483;55.828;37.488;2023-09-07T00:36:05;11.10;99.90
22633;DHT22;11483;55.828;37.488;2023-09-07T00:38:32;11.00;99.90
22633;DHT22;11483;55.828;37.488;2023-09-07T00:40:57;10.90;99.90
22633;DHT22;11483;55.828;37.488;2023-09-07T00:43:23;10.90;99.90
22633;DHT22;11483;55.828;37.488;2023-09-07T00:45:49;10.90;99.90
22633;DHT22;11483;55.828;37.488;2023-09-07T00:48:16;10.90;99.90
22633;DHT22;11483;55.828;37.488;2023-09-07T00:50:42;10.90;99.90
22633;DHT22;11483;55.828;37.488;2023-09-07T00:53:10;10.80;99.90
22633;DHT22;11483;55.828;37.488;2023-09-07T00:55:36;10.90;99.90
22633;DHT22;11483;55.828;37.488;2023-09-07T00:58:04;10.90;99.90
22633;DHT22;11483;55.828;37.488;2023-09-07T01:00:30;10.90;99.90
22633;DHT22;11483;55.828;37.488;2023-09-07T01:02:57;10.80;99.90
22633;DHT22;11483;55.828;37.488;2023-09-07T01:08:39;10.70;99.90
22633;DHT22;11483;55.828;37.488;2023-09-07T01:11:17;10.70;99.90
22633;DHT22;11483;55.828;37.488;2023-09-07T01:13:46;10.60;99.90
22633;DHT22;11483;55.828;37.488;2023-09-07T01:16:13;10.70;99.90
22633;DHT22;11483;55.828;37.488;2023-09-07T01:18:39;10.60;99.90
22633;DHT22;11483;55.828;37.488;2023-09-07T01:21:07;10.60;99.90
22633;DHT22;11483;55.828;37.488;2023-09-07T01:23:38;10.60;99.90
22633;DHT22;11483;55.828;37.488;2023-09-07T01:26:09;10.60;99.90
22633;DHT22;11483;55.828;37.488;2023-09-07T01:28:35;10.60;99.90
22633;DHT22;11483;55.828;37.488;2023-09-07T01:31:02;10.60;99.90
22633;DHT22;11483;55.828;37.488;2023-09-07T01:33:28;10.60;99.90
22633;DHT22;11483;55.828;37.488;2023-09-07T01:35:54;10.60;99.90
22633;DHT22;11483;55.828;37.488;2023-09-07T01:38:20;10.70;99.90
22633;DHT22;11483;55.828;37.488;2023-09-07T01:40:46;10.60;99.90
22633;DHT22;11483;55.828;37.488;2023-09-07T01:43:12;10.60;99.90
22633;DHT22;11483;55.828;37.488;2023-09-07T01:45:38;10.50;99.90
22633;DHT22;11483;55.828;37.488;2023-09-07T01:48:08;10.50;99.90
22633;DHT22;11483;55.828;37.488;2023-09-07T01:50:35;10.50;99.90
22633;DHT22;11483;55.828;37.488;2023-09-07T01:53:01;10.50;99.90
22633;DHT22;11483;55.828;37.488;2023-09-07T01:55:30;10.50;99.90
22633;DHT22;11483;55.828;37.488;2023-09-07T01:57:56;10.50;99.90
22633;DHT22;11483;55.828;37.488;2023-09-07T02:00:22;10.50;99.90
22633;DHT22;11483;55.828;37.488;2023-09-07T02:02:48;10.60;99.90
22633;DHT22;11483;55.828;37.488;2023-09-07T02:05:14;10.60;99.90
22633;DHT22;11483;55.828;37.488;2023-09-07T02:07:40;10.70;99.90
22633;DHT22;11483;55.828;37.488;2023-09-07T02:10:07;10.70;99.90
22633;DHT22;11483;55.828;37.488;2023-09-07T02:12:34;10.70;99.90
22633;DHT22;11483;55.828;37.488;2023-09-07T02:15:02;10.70;99.90
22633;DHT22;11483;55.828;37.488;2023-09-07T02:17:29;10.80;99.90
22633;DHT22;11483;55.828;37.488;2023-09-07T02:19:56;10.70;99.90
22633;DHT22;11483;55.828;37.488;2023-09-07T02:22:22;10.70;99.90
22633;DHT22;11483;55.828;37.488;2023-09-07T02:24:48;10.70;99.90
22633;DHT22;11483;55.828;37.488;2023-09-07T02:27:13;10.60;99.90
22633;DHT22;11483;55.828;37.488;2023-09-07T02:29:39;10.60;99.90
22633;DHT22;11483;55.828;37.488;2023-09-07T02:32:05;10.60;99.90
22633;DHT22;11483;55.828;37.488;2023-09-07T02:34:32;10.50;99.90
22633;DHT22;11483;55.828;37.488;2023-09-07T02:37:02;10.50;99.90
22633;DHT22;11483;55.828;37.488;2023-09-07T02:39:28;10.40;99.90
22633;DHT22;11483;55.828;37.488;2023-09-07T02:41:54;10.40;99.90
22633;DHT22;11483;55.828;37.488;2023-09-07T02:44:20;10.40;99.90
22633;DHT22;11483;55.828;37.488;2023-09-07T02:46:46;10.40;99.90
22633;DHT22;11483;55.828;37.488;2023-09-07T02:49:12;10.40;99.90
22633;DHT22;11483;55.828;37.488;2023-09-07T02:51:38;10.50;99.90
22633;DHT22;11483;55.828;37.488;2023-09-07T02:54:04;10.40;99.90
22633;DHT22;11483;55.828;37.488;2023-09-07T02:56:30;10.50;99.90
22633;DHT22;11483;55.828;37.488;2023-09-07T02:58:57;10.50;99.90
22633;DHT22;11483;55.828;37.488;2023-09-07T03:01:23;10.50;99.90
22633;DHT22;11483;55.828;37.488;2023-09-07T03:03:48;10.50;99.90
22633;DHT22;11483;55.828;37.488;2023-09-07T03:06:15;10.50;99.90
22633;DHT22;11483;55.828;37.488;2023-09-07T03:08:43;10.60;99.90
22633;DHT22;11483;55.828;37.488;2023-09-07T03:11:09;10.50;99.90
22633;DHT22;11483;55.828;37.488;2023-09-07T03:13:35;10.60;99.90
22633;DHT22;11483;55.828;37.488;2023-09-07T03:16:03;10.60;99.90
22633;DHT22;11483;55.828;37.488;2023-09-07T03:18:29;10.60;99.90
22633;DHT22;11483;55.828;37.488;2023-09-07T03:20:57;10.60;99.90
22633;DHT22;11483;55.828;37.488;2023-09-07T03:23:24;10.60;99.90
22633;DHT22;11483;55.828;37.488;2023-09-07T03:25:50;10.50;99.90
22633;DHT22;11483;55.828;37.488;2023-09-07T03:28:15;10.50;99.90
22633;DHT22;11483;55.828;37.488;2023-09-07T03:30:41;10.50;99.90
22633;DHT22;11483;55.828;37.488;2023-09-07T03:33:07;10.50;99.90
22633;DHT22;11483;55.828;37.488;2023-09-07T03:35:33;10.50;99.90
22633;DHT22;11483;55.828;37.488;2023-09-07T03:37:59;10.50;99.90
22633;DHT22;11483;55.828;37.488;2023-09-07T03:40:25;10.50;99.90
22633;DHT22;11483;55.828;37.488;2023-09-07T03:42:51;10.60;99.90
22633;DHT22;11483;55.828;37.488;2023-09-07T03:45:17;10.50;99.90
22633;DHT22;11483;55.828;37.488;2023-09-07T03:47:43;10.60;99.90
22633;DHT22;11483;55.828;37.488;2023-09-07T03:50:09;10.50;99.90
22633;DHT22;11483;55.828;37.488;2023-09-07T03:52:36;10.60;99.90
22633;DHT22;11483;55.828;37.488;2023-09-07T03:55:02;10.60;99.90
22633;DHT22;11483;55.828;37.488;2023-09-07T03:57:29;10.60;99.90
22633;DHT22;11483;55.828;37.488;2023-09-07T03:59:56;10.60;99.90
22633;DHT22;11483;55.828;37.488;2023-09-07T04:02:22;10.60;99.90
22633;DHT22;11483;55.828;37.488;2023-09-07T04:04:55;10.50;99.90
22633;DHT22;11483;55.828;37.488;2023-09-07T04:07:21;10.60;99.90
22633;DHT22;11483;55.828;37.488;2023-09-07T04:09:47;10.50;99.90
22633;DHT22;11483;55.828;37.488;2023-09-07T04:12:13;10.50;99.90
22633;DHT22;11483;55.828;37.488;2023-09-07T04:14:39;10.60;99.90
22633;DHT22;11483;55.828;37.488;2023-09-07T04:17:05;10.60;99.90
22633;DHT22;11483;55.828;37.488;2023-09-07T04:19:31;10.60;99.90
22633;DHT22;11483;55.828;37.488;2023-09-07T04:21:57;10.50;99.90
22633;DHT22;11483;55.828;37.488;2023-09-07T04:24:24;10.60;99.90
22633;DHT22;11483;55.828;37.488;2023-09-07T04:26:49;10.60;99.90
22633;DHT22;11483;55.828;37.488;2023-09-07T04:29:16;10.70;99.90
22633;DHT22;11483;55.828;37.488;2023-09-07T04:31:41;10.80;99.90
22633;DHT22;11483;55.828;37.488;2023-09-07T04:34:08;10.90;99.90
22633;DHT22;11483;55.828;37.488;2023-09-07T04:36:33;10.90;99.90
22633;DHT22;11483;55.828;37.488;2023-09-07T04:38:59;10.90;99.90
22633;DHT22;11483;55.828;37.488;2023-09-07T04:41:25;11.00;99.90
22633;DHT22;11483;55.828;37.488;2023-09-07T04:43:51;11.10;99.90
22633;DHT22;11483;55.828;37.488;2023-09-07T04:46:17;11.10;99.90
22633;DHT22;11483;55.828;37.488;2023-09-07T04:48:43;11.10;99.90
22633;DHT22;11483;55.828;37.488;2023-09-07T04:51:10;11.30;99.90
22633;DHT22;11483;55.828;37.488;2023-09-07T04:53:38;11.40;99.90
22633;DHT22;11483;55.828;37.488;2023-09-07T04:56:05;11.40;99.90
22633;DHT22;11483;55.828;37.488;2023-09-07T04:58:31;11.50;99.90
22633;DHT22;11483;55.828;37.488;2023-09-07T05:01:08;11.60;99.90
22633;DHT22;11483;55.828;37.488;2023-09-07T05:03:34;11.70;99.90
22633;DHT22;11483;55.828;37.488;2023-09-07T05:06:01;11.80;99.90
22633;DHT22;11483;55.828;37.488;2023-09-07T05:08:28;11.80;99.90
22633;DHT22;11483;55.828;37.488;2023-09-07T05:11:00;11.80;99.90
22633;DHT22;11483;55.828;37.488;2023-09-07T05:13:26;11.80;99.90
22633;DHT22;11483;55.828;37.488;2023-09-07T05:15:53;11.90;99.90
22633;DHT22;11483;55.828;37.488;2023-09-07T05:18:19;12.00;99.90
22633;DHT22;11483;55.828;37.488;2023-09-07T05:20:45;11.90;99.90
22633;DHT22;11483;55.828;37.488;2023-09-07T05:23:12;11.90;99.90
22633;DHT22;11483;55.828;37.488;2023-09-07T05:25:49;12.00;99.90
22633;DHT22;11483;55.828;37.488;2023-09-07T05:28:16;12.10;99.90
22633;DHT22;11483;55.828;37.488;2023-09-07T05:30:43;12.30;99.90
22633;DHT22;11483;55.828;37.488;2023-09-07T05:33:13;12.40;99.90
22633;DHT22;11483;55.828;37.488;2023-09-07T05:35:40;12.20;99.90
22633;DHT22;11483;55.828;37.488;2023-09-07T05:38:07;12.20;99.90
22633;DHT22;11483;55.828;37.488;2023-09-07T05:40:35;12.30;99.90
22633;DHT22;11483;55.828;37.488;2023-09-07T05:43:01;12.30;99.90
22633;DHT22;11483;55.828;37.488;2023-09-07T05:45:30;12.50;99.90
22633;DHT22;11483;55.828;37.488;2023-09-07T05:47:57;12.70;99.90
22633;DHT22;11483;55.828;37.488;2023-09-07T05:50:23;12.80;99.90
22633;DHT22;11483;55.828;37.488;2023-09-07T05:52:49;13.10;99.90
22633;DHT22;11483;55.828;37.488;2023-09-07T05:55:14;13.10;99.90
22633;DHT22;11483;55.828;37.488;2023-09-07T05:57:41;13.20;99.90
22633;DHT22;11483;55.828;37.488;2023-09-07T06:00:07;13.10;99.90
22633;DHT22;11483;55.828;37.488;2023-09-07T06:02:33;13.10;99.90
22633;DHT22;11483;55.828;37.488;2023-09-07T06:04:59;13.20;99.90
22633;DHT22;11483;55.828;37.488;2023-09-07T06:07:26;13.30;99.90
22633;DHT22;11483;55.828;37.488;2023-09-07T06:09:51;13.20;99.90
22633;DHT22;11483;55.828;37.488;2023-09-07T06:12:17;13.20;99.90
22633;DHT22;11483;55.828;37.488;2023-09-07T06:14:44;13.30;99.90
22633;DHT22;11483;55.828;37.488;2023-09-07T06:17:12;13.30;99.90
22633;DHT22;11483;55.828;37.488;2023-09-07T06:19:38;13.30;99.90
22633;DHT22;11483;55.828;37.488;2023-09-07T06:22:04;13.30;99.90
22633;DHT22;11483;55.828;37.488;2023-09-07T06:24:30;13.00;99.90
22633;DHT22;11483;55.828;37.488;2023-09-07T06:26:55;12.80;99.90
22633;DHT22;11483;55.828;37.488;2023-09-07T06:29:21;12.70;99.90
22633;DHT22;11483;55.828;37.488;2023-09-07T06:31:47;12.70;99.90
22633;DHT22;11483;55.828;37.488;2023-09-07T06:34:16;12.70;99.90
22633;DHT22;11483;55.828;37.488;2023-09-07T06:36:41;12.70;99.90
22633;DHT22;11483;55.828;37.488;2023-09-07T06:39:07;12.80;99.90
22633;DHT22;11483;55.828;37.488;2023-09-07T06:41:33;12.80;99.90
22633;DHT22;11483;55.828;37.488;2023-09-07T06:43:59;12.90;99.90
22633;DHT22;11483;55.828;37.488;2023-09-07T06:46:25;12.90;99.90
22633;DHT22;11483;55.828;37.488;2023-09-07T06:48:50;12.80;99.90
22633;DHT22;11483;55.828;37.488;2023-09-07T06:51:16;12.80;99.90
22633;DHT22;11483;55.828;37.488;2023-09-07T06:53:42;12.90;99.90
22633;DHT22;11483;55.828;37.488;2023-09-07T06:56:08;12.90;99.90
22633;DHT22;11483;55.828;37.488;2023-09-07T06:58:34;12.90;99.90
22633;DHT22;11483;55.828;37.488;2023-09-07T07:01:00;12.90;99.90
22633;DHT22;11483;55.828;37.488;2023-09-07T07:03:28;12.90;99.90
22633;DHT22;11483;55.828;37.488;2023-09-07T07:05:55;13.10;99.90
22633;DHT22;11483;55.828;37.488;2023-09-07T07:08:21;13.30;99.90
22633;DHT22;11483;55.828;37.488;2023-09-07T07:10:47;13.40;99.90
22633;DHT22;11483;55.828;37.488;2023-09-07T07:13:13;13.40;99.90
22633;DHT22;11483;55.828;37.488;2023-09-07T07:15:39;13.40;99.90
22633;DHT22;11483;55.828;37.488;2023-09-07T07:18:05;13.50;99.90
22633;DHT22;11483;55.828;37.488;2023-09-07T07:20:35;13.60;99.90
22633;DHT22;11483;55.828;37.488;2023-09-07T07:23:01;13.90;99.90
22633;DHT22;11483;55.828;37.488;2023-09-07T07:25:27;13.90;99.90
22633;DHT22;11483;55.828;37.488;2023-09-07T07:27:53;14.00;99.90
22633;DHT22;11483;55.828;37.488;2023-09-07T07:30:19;14.00;99.90
22633;DHT22;11483;55.828;37.488;2023-09-07T07:32:45;14.00;99.90
22633;DHT22;11483;55.828;37.488;2023-09-07T07:35:11;14.00;99.90
22633;DHT22;11483;55.828;37.488;2023-09-07T07:37:36;14.10;99.90
22633;DHT22;11483;55.828;37.488;2023-09-07T07:40:02;14.20;99.90
22633;DHT22;11483;55.828;37.488;2023-09-07T07:42:28;14.30;99.90
22633;DHT22;11483;55.828;37.488;2023-09-07T07:44:54;14.40;99.90
22633;DHT22;11483;55.828;37.488;2023-09-07T07:47:20;14.50;99.90
22633;DHT22;11483;55.828;37.488;2023-09-07T07:49:46;14.50;99.90
22633;DHT22;11483;55.828;37.488;2023-09-07T07:52:12;14.60;99.90
22633;DHT22;11483;55.828;37.488;2023-09-07T07:54:38;14.90;99.90
22633;DHT22;11483;55.828;37.488;2023-09-07T07:57:04;15.10;99.90
22633;DHT22;11483;55.828;37.488;2023-09-07T07:59:29;15.20;99.90
22633;DHT22;11483;55.828;37.488;2023-09-07T08:01:55;15.50;99.90
22633;DHT22;11483;55.828;37.488;2023-09-07T08:04:21;15.60;99.90
22633;DHT22;11483;55.828;37.488;2023-09-07T08:06:47;15.90;99.90
22633;DHT22;11483;55.828;37.488;2023-09-07T08:09:13;15.80;99.90
22633;DHT22;11483;55.828;37.488;2023-09-07T08:11:39;15.70;99.90
22633;DHT22;11483;55.828;37.488;2023-09-07T08:14:05;15.70;99.90
22633;DHT22;11483;55.828;37.488;2023-09-07T08:16:31;15.90;99.90
22633;DHT22;11483;55.828;37.488;2023-09-07T08:18:57;16.20;99.90
22633;DHT22;11483;55.828;37.488;2023-09-07T08:21:23;16.60;99.90
22633;DHT22;11483;55.828;37.488;2023-09-07T08:23:48;17.30;99.90
22633;DHT22;11483;55.828;37.488;2023-09-07T08:26:14;18.40;99.90
22633;DHT22;11483;55.828;37.488;2023-09-07T08:28:40;19.80;99.90
22633;DHT22;11483;55.828;37.488;2023-09-07T08:31:06;20.10;99.90
22633;DHT22;11483;55.828;37.488;2023-09-07T08:33:32;20.00;99.90
22633;DHT22;11483;55.828;37.488;2023-09-07T08:36:05;18.90;99.90
22633;DHT22;11483;55.828;37.488;2023-09-07T08:38:31;18.10;99.90
22633;DHT22;11483;55.828;37.488;2023-09-07T08:41:01;17.90;99.90
22633;DHT22;11483;55.828;37.488;2023-09-07T08:43:29;19.30;99.90
22633;DHT22;11483;55.828;37.488;2023-09-07T08:46:26;18.50;99.90
22633;DHT22;11483;55.828;37.488;2023-09-07T08:48:54;17.60;99.90
22633;DHT22;11483;55.828;37.488;2023-09-07T08:51:21;17.60;99.90
22633;DHT22;11483;55.828;37.488;2023-09-07T08:53:48;18.60;99.90
22633;DHT22;11483;55.828;37.488;2023-09-07T08:56:16;20.70;99.90
22633;DHT22;11483;55.828;37.488;2023-09-07T08:58:42;21.10;98.60
22633;DHT22;11483;55.828;37.488;2023-09-07T09:01:10;21.10;98.70
22633;DHT22;11483;55.828;37.488;2023-09-07T09:03:36;19.80;99.20
22633;DHT22;11483;55.828;37.488;2023-09-07T09:06:03;19.70;97.90
22633;DHT22;11483;55.828;37.488;2023-09-07T09:08:42;20.30;95.60
22633;DHT22;11483;55.828;37.488;2023-09-07T09:11:11;19.70;95.70
22633;DHT22;11483;55.828;37.488;2023-09-07T09:13:39;20.70;95.00
22633;DHT22;11483;55.828;37.488;2023-09-07T09:16:06;22.00;94.30
22633;DHT22;11483;55.828;37.488;2023-09-07T09:18:32;22.20;91.60
22633;DHT22;11483;55.828;37.488;2023-09-07T09:20:58;22.40;90.20
22633;DHT22;11483;55.828;37.488;2023-09-07T09:23:36;22.50;88.40
22633;DHT22;11483;55.828;37.488;2023-09-07T09:26:03;22.70;89.90
22633;DHT22;11483;55.828;37.488;2023-09-07T09:28:34;22.70;87.60
22633;DHT22;11483;55.828;37.488;2023-09-07T09:31:01;21.10;86.20
22633;DHT22;11483;55.828;37.488;2023-09-07T09:33:30;19.50;90.90
22633;DHT22;11483;55.828;37.488;2023-09-07T09:35:57;20.20;91.70
22633;DHT22;11483;55.828;37.488;2023-09-07T09:38:30;20.30;90.90
22633;DHT22;11483;55.828;37.488;2023-09-07T09:40:58;21.50;89.40
22633;DHT22;11483;55.828;37.488;2023-09-07T09:43:27;22.20;86.50
22633;DHT22;11483;55.828;37.488;2023-09-07T09:45:53;21.60;82.70
22633;DHT22;11483;55.828;37.488;2023-09-07T09:48:20;20.40;86.90
22633;DHT22;11483;55.828;37.488;2023-09-07T09:50:47;19.70;89.70
22633;DHT22;11483;55.828;37.488;2023-09-07T09:53:18;20.90;87.80
22633;DHT22;11483;55.828;37.488;2023-09-07T09:55:50;20.70;86.80
22633;DHT22;11483;55.828;37.488;2023-09-07T09:58:18;20.40;84.10
22633;DHT22;11483;55.828;37.488;2023-09-07T10:00:46;19.30;87.30
22633;DHT22;11483;55.828;37.488;2023-09-07T10:03:22;18.30;90.30
22633;DHT22;11483;55.828;37.488;2023-09-07T10:05:49;17.60;91.90
22633;DHT22;11483;55.828;37.488;2023-09-07T10:08:17;17.40;91.50
22633;DHT22;11483;55.828;37.488;2023-09-07T10:10:47;17.50;91.40
22633;DHT22;11483;55.828;37.488;2023-09-07T10:13:17;18.70;90.90
22633;DHT22;11483;55.828;37.488;2023-09-07T10:16:05;20.20;90.20
22633;DHT22;11483;55.828;37.488;2023-09-07T10:18:38;22.60;87.20
22633;DHT22;11483;55.828;37.488;2023-09-07T10:21:05;22.70;81.80
22633;DHT22;11483;55.828;37.488;2023-09-07T10:23:49;21.80;83.60
22633;DHT22;11483;55.828;37.488;2023-09-07T10:26:17;20.70;83.40
22633;DHT22;11483;55.828;37.488;2023-09-07T10:28:43;21.70;82.40
22633;DHT22;11483;55.828;37.488;2023-09-07T10:31:18;22.60;78.90
22633;DHT22;11483;55.828;37.488;2023-09-07T10:33:45;23.80;78.10
22633;DHT22;11483;55.828;37.488;2023-09-07T10:36:25;23.40;75.90
22633;DHT22;11483;55.828;37.488;2023-09-07T10:38:54;21.40;78.30
22633;DHT22;11483;55.828;37.488;2023-09-07T10:41:21;20.60;81.10
22633;DHT22;11483;55.828;37.488;2023-09-07T10:43:51;20.70;83.20
22633;DHT22;11483;55.828;37.488;2023-09-07T10:46:22;20.90;81.30
22633;DHT22;11483;55.828;37.488;2023-09-07T10:48:52;20.60;81.60
22633;DHT22;11483;55.828;37.488;2023-09-07T10:51:19;20.20;83.80
22633;DHT22;11483;55.828;37.488;2023-09-07T10:53:45;21.40;85.00
22633;DHT22;11483;55.828;37.488;2023-09-07T10:56:11;22.40;82.60
22633;DHT22;11483;55.828;37.488;2023-09-07T10:58:38;22.50;81.80
22633;DHT22;11483;55.828;37.488;2023-09-07T11:01:10;23.50;79.70
22633;DHT22;11483;55.828;37.488;2023-09-07T11:03:37;24.00;77.50
22633;DHT22;11483;55.828;37.488;2023-09-07T11:06:08;22.50;78.70
22633;DHT22;11483;55.828;37.488;2023-09-07T11:08:35;21.50;80.40
22633;DHT22;11483;55.828;37.488;2023-09-07T11:11:04;20.30;83.50
22633;DHT22;11483;55.828;37.488;2023-09-07T11:13:31;19.60;86.60
22633;DHT22;11483;55.828;37.488;2023-09-07T11:15:58;19.20;87.30
22633;DHT22;11483;55.828;37.488;2023-09-07T11:18:25;18.90;87.40
22633;DHT22;11483;55.828;37.488;2023-09-07T11:20:52;19.20;86.70
22633;DHT22;11483;55.828;37.488;2023-09-07T11:23:20;19.60;87.90
22633;DHT22;11483;55.828;37.488;2023-09-07T11:25:50;20.10;87.20
22633;DHT22;11483;55.828;37.488;2023-09-07T11:28:18;21.30;85.50
22633;DHT22;11483;55.828;37.488;2023-09-07T11:30:51;22.40;83.40
22633;DHT22;11483;55.828;37.488;2023-09-07T11:33:17;22.80;80.40
22633;DHT22;11483;55.828;37.488;2023-09-07T11:35:43;23.10;79.00
22633;DHT22;11483;55.828;37.488;2023-09-07T11:38:13;23.50;75.30
22633;DHT22;11483;55.828;37.488;2023-09-07T11:40:39;23.90;75.80
22633;DHT22;11483;55.828;37.488;2023-09-07T11:43:08;23.60;74.40
22633;DHT22;11483;55.828;37.488;2023-09-07T11:45:34;24.00;72.70
22633;DHT22;11483;55.828;37.488;2023-09-07T11:48:00;23.80;72.20
22633;DHT22;11483;55.828;37.488;2023-09-07T11:50:26;22.60;73.20
22633;DHT22;11483;55.828;37.488;2023-09-07T11:52:55;21.50;76.10
22633;DHT22;11483;55.828;37.488;2023-09-07T11:55:22;21.70;76.70
22633;DHT22;11483;55.828;37.488;2023-09-07T11:57:48;22.10;78.60
22633;DHT22;11483;55.828;37.488;2023-09-07T12:00:14;22.80;78.00
22633;DHT22;11483;55.828;37.488;2023-09-07T12:02:40;23.10;70.90
22633;DHT22;11483;55.828;37.488;2023-09-07T12:05:07;23.10;69.30
22633;DHT22;11483;55.828;37.488;2023-09-07T12:07:37;22.90;70.50
22633;DHT22;11483;55.828;37.488;2023-09-07T12:10:04;22.90;69.00
22633;DHT22;11483;55.828;37.488;2023-09-07T12:12:30;23.20;70.40
22633;DHT22;11483;55.828;37.488;2023-09-07T12:14:56;23.30;70.90
22633;DHT22;11483;55.828;37.488;2023-09-07T12:17:22;23.40;68.90
22633;DHT22;11483;55.828;37.488;2023-09-07T12:19:50;23.30;69.50
22633;DHT22;11483;55.828;37.488;2023-09-07T12:22:16;23.40;68.60
22633;DHT22;11483;55.828;37.488;2023-09-07T12:24:42;23.30;69.60
22633;DHT22;11483;55.828;37.488;2023-09-07T12:27:07;23.80;69.30
22633;DHT22;11483;55.828;37.488;2023-09-07T12:29:33;23.40;68.10
22633;DHT22;11483;55.828;37.488;2023-09-07T12:31:59;23.30;67.10
22633;DHT22;11483;55.828;37.488;2023-09-07T12:34:25;22.50;68.30
22633;DHT22;11483;55.828;37.488;2023-09-07T12:36:51;21.90;70.50
22633;DHT22;11483;55.828;37.488;2023-09-07T12:39:17;21.50;73.40
22633;DHT22;11483;55.828;37.488;2023-09-07T12:41:43;21.00;72.00
22633;DHT22;11483;55.828;37.488;2023-09-07T12:44:08;20.50;74.20
22633;DHT22;11483;55.828;37.488;2023-09-07T12:46:34;20.30;75.40
22633;DHT22;11483;55.828;37.488;2023-09-07T12:49:02;20.10;75.70
22633;DHT22;11483;55.828;37.488;2023-09-07T12:51:28;19.70;75.80
22633;DHT22;11483;55.828;37.488;2023-09-07T12:53:54;19.20;77.40
22633;DHT22;11483;55.828;37.488;2023-09-07T12:56:20;18.90;79.00
22633;DHT22;11483;55.828;37.488;2023-09-07T12:58:46;18.70;80.40
22633;DHT22;11483;55.828;37.488;2023-09-07T13:01:12;18.40;80.90
22633;DHT22;11483;55.828;37.488;2023-09-07T13:03:41;18.10;81.80
22633;DHT22;11483;55.828;37.488;2023-09-07T13:06:07;17.60;83.40
22633;DHT22;11483;55.828;37.488;2023-09-07T13:08:32;18.00;83.40
22633;DHT22;11483;55.828;37.488;2023-09-07T13:10:59;18.80;83.20
22633;DHT22;11483;55.828;37.488;2023-09-07T13:13:25;18.50;81.70
22633;DHT22;11483;55.828;37.488;2023-09-07T13:15:56;18.20;81.00
22633;DHT22;11483;55.828;37.488;2023-09-07T13:18:22;18.30;80.40
22633;DHT22;11483;55.828;37.488;2023-09-07T13:20:48;19.10;81.60
22633;DHT22;11483;55.828;37.488;2023-09-07T13:23:31;19.70;79.80
22633;DHT22;11483;55.828;37.488;2023-09-07T13:25:57;19.30;78.90
22633;DHT22;11483;55.828;37.488;2023-09-07T13:28:23;18.70;80.70
22633;DHT22;11483;55.828;37.488;2023-09-07T13:30:52;18.20;82.00
22633;DHT22;11483;55.828;37.488;2023-09-07T13:33:18;18.00;83.40
22633;DHT22;11483;55.828;37.488;2023-09-07T13:35:44;17.80;83.70
22633;DHT22;11483;55.828;37.488;2023-09-07T13:38:11;17.70;84.70
22633;DHT22;11483;55.828;37.488;2023-09-07T13:40:36;17.60;87.00
22633;DHT22;11483;55.828;37.488;2023-09-07T13:43:02;17.70;85.60
22633;DHT22;11483;55.828;37.488;2023-09-07T13:45:28;18.50;83.70
22633;DHT22;11483;55.828;37.488;2023-09-07T13:47:55;18.80;83.90
22633;DHT22;11483;55.828;37.488;2023-09-07T13:50:21;19.50;81.80
22633;DHT22;11483;55.828;37.488;2023-09-07T13:52:48;19.80;81.60
22633;DHT22;11483;55.828;37.488;2023-09-07T13:55:13;20.00;82.00
22633;DHT22;11483;55.828;37.488;2023-09-07T13:57:39;19.70;79.70
22633;DHT22;11483;55.828;37.488;2023-09-07T14:00:05;19.10;80.80
22633;DHT22;11483;55.828;37.488;2023-09-07T14:02:34;18.50;82.10
22633;DHT22;11483;55.828;37.488;2023-09-07T14:05:00;18.20;83.50
22633;DHT22;11483;55.828;37.488;2023-09-07T14:07:26;17.90;84.00
22633;DHT22;11483;55.828;37.488;2023-09-07T14:09:54;17.90;85.60
22633;DHT22;11483;55.828;37.488;2023-09-07T14:12:20;18.20;85.40
22633;DHT22;11483;55.828;37.488;2023-09-07T14:14:48;18.80;85.10
22633;DHT22;11483;55.828;37.488;2023-09-07T14:17:14;19.50;83.30
22633;DHT22;11483;55.828;37.488;2023-09-07T14:19:40;20.10;83.40
22633;DHT22;11483;55.828;37.488;2023-09-07T14:22:06;20.30;80.00
22633;DHT22;11483;55.828;37.488;2023-09-07T14:24:32;20.30;78.70
22633;DHT22;11483;55.828;37.488;2023-09-07T14:26:58;20.20;77.90
22633;DHT22;11483;55.828;37.488;2023-09-07T14:29:24;20.20;78.00
22633;DHT22;11483;55.828;37.488;2023-09-07T14:31:49;20.40;76.80
22633;DHT22;11483;55.828;37.488;2023-09-07T14:34:15;20.40;77.40
22633;DHT22;11483;55.828;37.488;2023-09-07T14:36:41;20.70;78.30
22633;DHT22;11483;55.828;37.488;2023-09-07T14:39:07;21.20;76.90
22633;DHT22;11483;55.828;37.488;2023-09-07T14:41:37;21.40;75.40
22633;DHT22;11483;55.828;37.488;2023-09-07T14:44:04;21.60;74.80
22633;DHT22;11483;55.828;37.488;2023-09-07T14:46:30;21.50;74.30
22633;DHT22;11483;55.828;37.488;2023-09-07T14:48:55;21.60;75.50
22633;DHT22;11483;55.828;37.488;2023-09-07T14:51:27;22.00;74.70
22633;DHT22;11483;55.828;37.488;2023-09-07T14:53:53;22.20;74.40
22633;DHT22;11483;55.828;37.488;2023-09-07T14:56:19;22.10;74.10
22633;DHT22;11483;55.828;37.488;2023-09-07T14:58:46;22.10;74.00
22633;DHT22;11483;55.828;37.488;2023-09-07T15:01:21;22.00;73.50
22633;DHT22;11483;55.828;37.488;2023-09-07T15:03:47;21.80;74.50
22633;DHT22;11483;55.828;37.488;2023-09-07T15:06:13;21.60;74.60
22633;DHT22;11483;55.828;37.488;2023-09-07T15:08:41;21.50;75.10
22633;DHT22;11483;55.828;37.488;2023-09-07T15:11:07;21.00;76.40
22633;DHT22;11483;55.828;37.488;2023-09-07T15:13:33;20.80;76.10
22633;DHT22;11483;55.828;37.488;2023-09-07T15:15:59;20.50;76.00
22633;DHT22;11483;55.828;37.488;2023-09-07T15:18:25;20.00;78.20